createdAt,value
2022-10-25T00:00:58.574Z,92.72
2022-10-25T00:03:25.077Z,93.01
2022-10-25T00:05:51.467Z,92.22
2022-10-25T00:08:17.904Z,92.30
2022-10-25T00:10:44.311Z,92.15
2022-10-25T00:13:10.689Z,92.65
2022-10-25T00:15:37.504Z,92.62
2022-10-25T00:18:04.051Z,92.11
2022-10-25T00:20:30.497Z,92.05
2022-10-25T00:22:57.597Z,92.50
2022-10-25T00:25:24.111Z,92.49
2022-10-25T00:27:50.527Z,92.70
2022-10-25T00:30:17.096Z,92.78
2022-10-25T00:32:43.649Z,92.47
2022-10-25T00:35:10.232Z,92.31
2022-10-25T00:37:37.314Z,92.86
2022-10-25T00:40:04.692Z,93.15
2022-10-25T00:42:31.090Z,92.73
2022-10-25T00:45:01.640Z,93.08
2022-10-25T00:47:41.157Z,93.11
2022-10-25T00:50:22.844Z,93.22
2022-10-25T00:52:53.332Z,93.08
2022-10-25T00:55:24.499Z,93.09
2022-10-25T00:58:03.800Z,92.95
2022-10-25T01:00:30.302Z,93.46
2022-10-25T01:05:28.392Z,92.95
2022-10-25T01:07:54.800Z,93.16
2022-10-25T01:10:21.365Z,93.37
2022-10-25T01:12:51.275Z,93.66
2022-10-25T01:15:22.747Z,93.22
2022-10-25T01:18:07.293Z,92.92
2022-10-25T01:20:59.222Z,92.83
2022-10-25T01:23:53.696Z,92.75
2022-10-25T01:27:00.597Z,92.80
2022-10-25T01:30:00.692Z,92.81
2022-10-25T01:32:35.206Z,92.86
2022-10-25T01:35:13.794Z,92.64
2022-10-25T01:37:58.933Z,92.49
2022-10-25T01:40:34.473Z,92.64
2022-10-25T01:43:11.726Z,92.14
2022-10-25T01:45:48.993Z,92.17
2022-10-25T01:48:30.181Z,92.58
2022-10-25T01:51:05.635Z,93.06
2022-10-25T01:53:31.989Z,92.60
2022-10-25T01:56:03.917Z,92.64
2022-10-25T01:59:21.453Z,92.05
2022-10-25T02:02:04.358Z,92.05
2022-10-25T02:04:47.396Z,91.97
2022-10-25T02:07:38.521Z,92.07
2022-10-25T02:10:20.872Z,92.28
2022-10-25T02:13:02.294Z,92.22
2022-10-25T02:15:34.622Z,92.35
2022-10-25T02:18:04.539Z,92.83
2022-10-25T02:20:34.490Z,92.83
2022-10-25T02:23:04.776Z,93.21
2022-10-25T02:25:35.948Z,93.30
2022-10-25T02:28:07.039Z,93.49
2022-10-25T02:30:35.615Z,93.20
2022-10-25T02:33:02.500Z,93.15
2022-10-25T02:35:28.965Z,93.61
2022-10-25T02:37:55.333Z,93.48
2022-10-25T02:40:22.145Z,93.31
2022-10-25T02:42:48.586Z,93.59
2022-10-25T02:45:14.993Z,93.75
2022-10-25T02:47:41.397Z,93.96
2022-10-25T02:50:08.517Z,93.73
2022-10-25T02:52:34.934Z,93.51
2022-10-25T02:55:01.818Z,93.50
2022-10-25T02:57:37.823Z,93.60
2022-10-25T03:00:06.599Z,93.78
2022-10-25T03:02:33.174Z,93.68
2022-10-25T03:04:59.587Z,93.83
2022-10-25T03:07:26.001Z,93.63
2022-10-25T03:09:52.380Z,93.77
2022-10-25T03:12:18.744Z,93.48
2022-10-25T03:14:45.121Z,93.32
2022-10-25T03:17:11.716Z,93.53
2022-10-25T03:19:38.088Z,93.29
2022-10-25T03:22:04.450Z,93.13
2022-10-25T03:24:30.846Z,93.21
2022-10-25T03:26:57.231Z,93.43
2022-10-25T03:29:23.631Z,93.17
2022-10-25T03:31:50.033Z,93.32
2022-10-25T03:34:16.403Z,92.94
2022-10-25T03:36:42.857Z,92.82
2022-10-25T03:39:10.285Z,92.51
2022-10-25T03:41:36.699Z,92.67
2022-10-25T03:44:03.462Z,92.42
2022-10-25T03:46:29.855Z,92.02
2022-10-25T03:48:56.200Z,92.01
2022-10-25T03:51:22.602Z,91.86
2022-10-25T03:53:49.171Z,91.86
2022-10-25T03:56:15.565Z,92.54
2022-10-25T03:58:41.974Z,92.40
2022-10-25T04:01:09.786Z,92.40
2022-10-25T04:03:36.893Z,92.24
2022-10-25T04:06:03.281Z,92.65
2022-10-25T04:08:29.774Z,93.17
2022-10-25T04:10:56.188Z,93.07
2022-10-25T04:13:22.553Z,93.33
2022-10-25T04:15:48.996Z,93.20
2022-10-25T04:18:15.361Z,93.14
2022-10-25T04:20:41.739Z,92.72
2022-10-25T04:23:08.104Z,92.31
2022-10-25T04:25:34.573Z,92.40
2022-10-25T04:28:01.030Z,92.16
2022-10-25T04:30:27.586Z,92.20
2022-10-25T04:32:53.998Z,92.10
2022-10-25T04:35:20.669Z,92.13
2022-10-25T04:37:47.037Z,92.26
2022-10-25T04:40:13.484Z,91.86
2022-10-25T04:42:39.906Z,92.13
2022-10-25T04:45:06.664Z,91.45
2022-10-25T04:47:33.901Z,92.01
2022-10-25T04:50:00.375Z,91.75
2022-10-25T04:52:28.864Z,91.90
2022-10-25T04:54:55.712Z,91.81
2022-10-25T04:57:22.251Z,91.68
2022-10-25T04:59:48.685Z,92.42
2022-10-25T05:02:15.129Z,92.61
2022-10-25T05:04:41.858Z,93.14
2022-10-25T05:07:08.241Z,92.76
2022-10-25T05:09:34.603Z,92.88
2022-10-25T05:12:00.985Z,92.87
2022-10-25T05:14:27.349Z,93.06
2022-10-25T05:16:53.699Z,93.14
2022-10-25T05:19:20.070Z,93.28
2022-10-25T05:21:47.699Z,93.16
2022-10-25T05:24:14.092Z,93.41
2022-10-25T05:26:40.498Z,92.75
2022-10-25T05:29:10.229Z,92.64
2022-10-25T05:31:38.561Z,92.73
2022-10-25T05:34:04.945Z,93.09
2022-10-25T05:36:33.262Z,92.90
2022-10-25T05:39:03.639Z,92.97
2022-10-25T05:41:33.214Z,93.58
2022-10-25T05:44:02.593Z,93.71
2022-10-25T05:46:28.946Z,93.85
2022-10-25T05:48:55.392Z,93.58
2022-10-25T05:51:34.673Z,93.90
2022-10-25T05:54:06.195Z,93.74
2022-10-25T05:56:34.041Z,93.87
2022-10-25T05:59:10.172Z,93.43
2022-10-25T06:01:46.851Z,93.44
2022-10-25T06:04:14.487Z,93.64
2022-10-25T06:06:42.168Z,93.84
2022-10-25T06:09:09.437Z,94.07
2022-10-25T06:11:36.405Z,93.91
2022-10-25T06:14:03.746Z,93.88
2022-10-25T06:16:30.416Z,93.87
2022-10-25T06:18:56.822Z,94.25
2022-10-25T06:21:25.797Z,93.91
2022-10-25T06:23:53.120Z,94.13
2022-10-25T06:26:23.575Z,94.31
2022-10-25T06:28:55.174Z,94.04
2022-10-25T06:31:21.885Z,93.96
2022-10-25T06:33:48.403Z,94.04
2022-10-25T06:36:17.449Z,94.41
2022-10-25T06:38:45.114Z,94.28
2022-10-25T06:41:13.937Z,93.99
2022-10-25T06:43:40.402Z,94.13
2022-10-25T06:46:18.049Z,94.02
2022-10-25T06:48:44.418Z,94.27
2022-10-25T06:51:10.831Z,94.06
2022-10-25T06:53:38.353Z,94.04
2022-10-25T06:56:13.424Z,94.09
2022-10-25T06:58:41.500Z,94.44
2022-10-25T07:01:11.155Z,94.44
2022-10-25T07:03:37.771Z,94.04
2022-10-25T07:06:06.294Z,94.09
2022-10-25T07:08:34.050Z,93.91
2022-10-25T07:11:01.950Z,94.31
2022-10-25T07:13:30.252Z,94.55
2022-10-25T07:16:07.907Z,94.54
2022-10-25T07:18:35.589Z,94.29
2022-10-25T07:21:04.415Z,94.39
2022-10-25T07:23:31.298Z,94.26
2022-10-25T07:25:58.387Z,94.21
2022-10-25T07:28:25.064Z,93.55
2022-10-25T07:30:51.857Z,93.44
2022-10-25T07:33:20.657Z,93.09
2022-10-25T07:35:59.147Z,92.63
2022-10-25T07:38:32.862Z,92.83
2022-10-25T07:40:59.812Z,93.26
2022-10-25T07:43:27.256Z,93.23
2022-10-25T07:45:54.565Z,93.11
2022-10-25T07:48:21.176Z,92.93
2022-10-25T07:50:47.913Z,92.34
2022-10-25T07:53:14.260Z,92.19
2022-10-25T07:55:40.776Z,92.33
2022-10-25T07:58:09.735Z,92.17
2022-10-25T08:00:36.749Z,92.08
2022-10-25T08:03:04.151Z,92.15
2022-10-25T08:05:30.649Z,91.96
2022-10-25T08:07:56.998Z,91.82
2022-10-25T08:10:23.392Z,92.08
2022-10-25T08:12:50.334Z,91.79
2022-10-25T08:15:18.110Z,91.87
2022-10-25T08:17:44.993Z,91.68
2022-10-25T08:20:11.676Z,91.58
2022-10-25T08:22:38.305Z,91.15
2022-10-25T08:25:05.316Z,91.08
2022-10-25T08:27:32.251Z,90.18
2022-10-25T08:29:58.634Z,89.28
2022-10-25T08:32:25.017Z,88.67
2022-10-25T08:34:51.423Z,88.50
2022-10-25T08:37:17.873Z,88.20
2022-10-25T08:39:44.911Z,88.47
2022-10-25T08:42:24.004Z,87.75
2022-10-25T08:45:21.018Z,87.01
2022-10-25T08:47:53.318Z,86.21
2022-10-25T08:50:37.587Z,85.08
2022-10-25T08:53:08.916Z,85.41
2022-10-25T08:55:41.644Z,85.07
2022-10-25T08:59:02.647Z,84.41
2022-10-25T09:01:36.884Z,84.54
2022-10-25T09:04:03.415Z,84.11
2022-10-25T09:06:44.524Z,84.16
2022-10-25T09:09:20.202Z,83.49
2022-10-25T09:12:05.133Z,83.40
2022-10-25T09:14:58.985Z,82.75
2022-10-25T09:17:48.522Z,82.26
2022-10-25T09:20:24.868Z,81.52
2022-10-25T09:23:00.752Z,81.43
2022-10-25T09:25:39.463Z,81.63
2022-10-25T09:28:19.062Z,81.19
2022-10-25T09:30:46.163Z,80.82
2022-10-25T09:33:18.094Z,79.75
2022-10-25T09:35:48.443Z,79.32
2022-10-25T09:38:33.285Z,79.47
2022-10-25T09:41:11.514Z,79.17
2022-10-25T09:43:49.041Z,78.37
2022-10-25T09:46:22.017Z,78.16
2022-10-25T09:49:25.993Z,77.50
2022-10-25T09:52:30.173Z,77.58
2022-10-25T09:55:16.017Z,77.38
2022-10-25T09:57:42.896Z,77.08
2022-10-25T10:00:13.839Z,77.21
2022-10-25T10:02:41.239Z,76.92
2022-10-25T10:05:22.354Z,75.76
2022-10-25T10:07:50.644Z,75.73
2022-10-25T10:10:24.853Z,75.07
2022-10-25T10:13:01.220Z,75.11
2022-10-25T10:15:34.949Z,74.50
2022-10-25T10:18:36.858Z,73.99
2022-10-25T10:21:12.193Z,73.65
2022-10-25T10:23:41.307Z,73.93
2022-10-25T10:26:35.717Z,73.84
2022-10-25T10:29:07.903Z,73.42
2022-10-25T10:31:41.117Z,73.22
2022-10-25T10:34:24.027Z,72.52
2022-10-25T10:37:16.516Z,72.08
2022-10-25T10:39:59.429Z,71.28
2022-10-25T10:45:08.989Z,69.94
2022-10-25T10:47:39.903Z,69.58
2022-10-25T10:50:25.547Z,69.37
2022-10-25T10:53:04.947Z,69.26
2022-10-25T10:55:33.109Z,68.07
2022-10-25T10:58:17.296Z,68.19
2022-10-25T11:00:58.198Z,67.40
2022-10-25T11:03:53.446Z,66.43
2022-10-25T11:06:31.907Z,66.19
2022-10-25T11:09:25.420Z,66.25
2022-10-25T11:12:14.801Z,65.23
2022-10-25T11:14:41.387Z,64.69
2022-10-25T11:17:15.137Z,64.72
2022-10-25T11:20:19.226Z,64.40
2022-10-25T11:23:13.643Z,63.56
2022-10-25T11:26:02.288Z,62.34
2022-10-25T11:28:59.586Z,62.24
2022-10-25T11:31:56.733Z,62.42
2022-10-25T11:34:29.049Z,61.89
2022-10-25T11:37:20.727Z,60.62
2022-10-25T11:40:07.884Z,59.78
2022-10-25T11:42:59.801Z,58.53
2022-10-25T11:45:42.904Z,58.34
2022-10-25T11:48:54.584Z,57.77
2022-10-25T11:51:44.290Z,57.12
2022-10-25T11:54:39.608Z,57.78
2022-10-25T11:57:23.097Z,58.59
2022-10-25T12:00:16.116Z,56.43
2022-10-25T12:03:12.725Z,54.79
2022-10-25T12:05:39.063Z,54.03
2022-10-25T12:08:26.370Z,53.60
2022-10-25T12:11:10.435Z,54.04
2022-10-25T12:13:42.537Z,53.92
2022-10-25T12:16:15.586Z,53.29
2022-10-25T12:18:48.044Z,53.51
2022-10-25T12:21:27.762Z,53.23
2022-10-25T12:23:55.061Z,52.32
2022-10-25T12:26:34.784Z,51.12
2022-10-25T12:29:11.890Z,50.34
2022-10-25T12:31:42.400Z,50.99
2022-10-25T12:34:47.638Z,50.73
2022-10-25T12:37:28.552Z,50.33
2022-10-25T12:39:56.310Z,49.71
2022-10-25T12:43:03.323Z,48.66
2022-10-25T12:45:57.471Z,48.08
2022-10-25T12:48:59.144Z,46.43
2022-10-25T12:51:45.946Z,46.64
2022-10-25T12:54:31.377Z,46.61
2022-10-25T12:57:17.689Z,47.19
2022-10-25T13:00:01.757Z,47.27
2022-10-25T13:03:07.472Z,46.17
2022-10-25T13:06:07.762Z,45.66
2022-10-25T13:08:34.824Z,44.64
2022-10-25T13:11:06.994Z,44.55
2022-10-25T13:13:48.660Z,43.04
2022-10-25T13:16:24.358Z,44.15
2022-10-25T13:19:49.731Z,44.55
2022-10-25T13:22:38.917Z,44.67
2022-10-25T13:25:17.702Z,44.23
2022-10-25T13:28:16.471Z,44.11
2022-10-25T13:30:44.094Z,44.58
2022-10-25T13:33:21.453Z,43.98
2022-10-25T13:35:50.716Z,43.44
2022-10-25T13:38:36.556Z,44.01
2022-10-25T13:41:11.790Z,44.01
2022-10-25T13:44:01.424Z,43.25
2022-10-25T13:46:36.288Z,43.71
2022-10-25T13:49:24.864Z,43.71
2022-10-25T13:51:56.101Z,44.83
2022-10-25T13:54:22.802Z,45.23
2022-10-25T13:56:52.207Z,44.32
2022-10-25T13:59:47.866Z,44.71
2022-10-25T14:02:20.444Z,44.55
2022-10-25T14:04:47.169Z,44.35
2022-10-25T14:07:41.756Z,43.91
2022-10-25T14:10:23.049Z,43.84
2022-10-25T14:12:53.444Z,43.81
2022-10-25T14:15:36.325Z,44.15
2022-10-25T14:18:08.438Z,44.13
2022-10-25T14:20:36.608Z,44.17
2022-10-25T14:23:06.552Z,43.48
2022-10-25T14:26:03.551Z,43.11
2022-10-25T14:28:32.448Z,43.26
2022-10-25T14:31:04.256Z,42.71
2022-10-25T14:33:35.533Z,42.27
2022-10-25T14:36:25.888Z,42.47
2022-10-25T14:38:55.177Z,41.40
2022-10-25T14:41:33.070Z,41.25
2022-10-25T14:44:00.470Z,40.82
2022-10-25T14:46:30.049Z,40.33
2022-10-25T14:48:58.426Z,40.26
2022-10-25T14:51:31.717Z,40.39
2022-10-25T14:54:00.872Z,41.11
2022-10-25T14:56:31.495Z,40.81
2022-10-25T14:58:59.431Z,41.14
2022-10-25T15:01:26.334Z,40.81
2022-10-25T15:03:56.218Z,42.28
2022-10-25T15:06:24.992Z,42.40
2022-10-25T15:09:17.611Z,42.23
2022-10-25T15:12:03.841Z,42.41
2022-10-25T15:14:30.942Z,40.43
2022-10-25T15:17:16.436Z,38.39
2022-10-25T15:20:06.570Z,38.68
2022-10-25T15:22:42.885Z,39.82
2022-10-25T15:25:27.709Z,41.30
2022-10-25T15:27:54.704Z,42.55
2022-10-25T15:30:45.343Z,42.48
2022-10-25T15:33:18.129Z,43.19
2022-10-25T15:36:03.667Z,43.72
2022-10-25T15:39:05.323Z,44.37
2022-10-25T15:41:22.603Z,45.33
2022-10-25T15:43:49.133Z,46.50
2022-10-25T15:46:21.563Z,47.89
2022-10-25T15:48:48.706Z,49.42
2022-10-25T15:51:15.126Z,50.80
2022-10-25T15:53:41.493Z,52.59
2022-10-25T15:56:13.186Z,54.04
2022-10-25T15:58:39.562Z,55.42
2022-10-25T16:01:06.698Z,56.31
2022-10-25T16:03:33.140Z,57.10
2022-10-25T16:05:59.572Z,58.22
2022-10-25T16:08:26.021Z,59.37
2022-10-25T16:10:53.185Z,59.81
2022-10-25T16:13:33.154Z,61.01
2022-10-25T16:16:04.601Z,61.95
2022-10-25T16:18:38.335Z,62.46
2022-10-25T16:21:04.772Z,63.53
2022-10-25T16:23:31.132Z,64.31
2022-10-25T16:25:58.088Z,64.97
2022-10-25T16:30:55.835Z,66.12
2022-10-25T16:33:22.189Z,66.91
2022-10-25T16:35:48.587Z,67.65
2022-10-25T16:38:16.507Z,68.41
2022-10-25T16:40:42.897Z,69.03
2022-10-25T16:43:12.241Z,69.08
2022-10-25T16:45:38.634Z,69.65
2022-10-25T16:48:05.863Z,70.09
2022-10-25T16:50:33.835Z,70.58
2022-10-25T16:53:03.654Z,70.83
2022-10-25T16:55:31.198Z,71.09
2022-10-25T16:57:58.854Z,71.55
2022-10-25T17:00:26.660Z,71.92
2022-10-25T17:02:53.016Z,72.50
2022-10-25T17:05:25.194Z,72.60
2022-10-25T17:07:52.380Z,72.84
2022-10-25T17:10:20.855Z,73.22
2022-10-25T17:12:52.168Z,73.83
2022-10-25T17:15:20.391Z,73.72
2022-10-25T17:17:47.346Z,74.22
2022-10-25T17:20:15.978Z,74.71
2022-10-25T17:22:42.479Z,74.71
2022-10-25T17:25:09.726Z,75.29
2022-10-25T17:27:38.040Z,75.33
2022-10-25T17:30:05.972Z,75.87
2022-10-25T17:32:32.367Z,75.82
2022-10-25T17:34:58.759Z,76.11
2022-10-25T17:37:25.228Z,76.88
2022-10-25T17:39:51.620Z,76.62
2022-10-25T17:42:19.261Z,76.50
2022-10-25T17:44:46.064Z,76.84
2022-10-25T17:47:14.119Z,77.11
2022-10-25T17:49:40.826Z,77.10
2022-10-25T17:52:07.864Z,77.21
2022-10-25T17:54:34.415Z,77.30
2022-10-25T17:57:02.789Z,77.49
2022-10-25T17:59:30.174Z,77.49
2022-10-25T18:01:57.610Z,77.28
2022-10-25T18:04:24.324Z,77.60
2022-10-25T18:06:50.883Z,77.67
2022-10-25T18:09:17.787Z,78.25
2022-10-25T18:11:44.786Z,78.67
2022-10-25T18:14:11.168Z,78.83
2022-10-25T18:16:37.598Z,78.55
2022-10-25T18:19:05.790Z,78.88
2022-10-25T18:21:33.110Z,79.14
2022-10-25T18:24:02.305Z,79.01
2022-10-25T18:26:29.489Z,79.16
2022-10-25T18:28:57.813Z,79.61
2022-10-25T18:31:26.912Z,79.29
2022-10-25T18:33:59.138Z,79.26
2022-10-25T18:36:27.375Z,79.42
2022-10-25T18:38:54.503Z,80.00
2022-10-25T18:41:29.653Z,79.59
2022-10-25T18:43:57.041Z,79.84
2022-10-25T18:46:24.853Z,80.27
2022-10-25T18:48:54.348Z,80.49
2022-10-25T18:51:22.208Z,80.66
2022-10-25T18:53:53.125Z,80.41
2022-10-25T18:56:21.984Z,80.51
2022-10-25T18:58:49.003Z,80.12
2022-10-25T19:01:18.033Z,80.49
2022-10-25T19:03:44.566Z,80.12
2022-10-25T19:06:11.077Z,80.45
2022-10-25T19:08:37.957Z,80.46
2022-10-25T19:11:10.261Z,80.17
2022-10-25T19:13:36.869Z,80.61
2022-10-25T19:16:03.874Z,80.48
2022-10-25T19:18:33.240Z,80.72
2022-10-25T19:21:04.913Z,80.79
2022-10-25T19:23:31.556Z,81.05
2022-10-25T19:26:02.619Z,81.29
2022-10-25T19:28:29.122Z,81.24
2022-10-25T19:30:55.472Z,80.82
2022-10-25T19:33:21.851Z,81.63
2022-10-25T19:35:48.221Z,81.49
2022-10-25T19:38:14.582Z,81.06
2022-10-25T19:40:44.975Z,81.44
2022-10-25T19:43:13.921Z,81.28
2022-10-25T19:45:42.276Z,82.01
2022-10-25T19:48:08.608Z,81.75
2022-10-25T19:50:35.001Z,82.01
2022-10-25T19:53:01.356Z,81.85
2022-10-25T19:55:27.738Z,81.47
2022-10-25T19:57:54.113Z,81.78
2022-10-25T20:00:20.626Z,82.08
2022-10-25T20:02:46.994Z,82.07
2022-10-25T20:05:13.427Z,82.42
2022-10-25T20:07:39.844Z,82.11
2022-10-25T20:10:06.694Z,82.46
2022-10-25T20:12:33.068Z,82.12
2022-10-25T20:15:00.507Z,82.31
2022-10-25T20:17:27.062Z,82.48
2022-10-25T20:19:53.454Z,82.92
2022-10-25T20:22:19.886Z,82.53
2022-10-25T20:24:46.364Z,83.31
2022-10-25T20:27:12.785Z,82.71
2022-10-25T20:29:39.979Z,82.97
2022-10-25T20:32:06.353Z,82.94
2022-10-25T20:34:35.016Z,82.89
2022-10-25T20:37:03.685Z,82.79
2022-10-25T20:39:30.139Z,82.97
2022-10-25T20:41:56.588Z,82.79
2022-10-25T20:44:23.045Z,82.79
2022-10-25T20:46:50.331Z,83.06
2022-10-25T20:49:16.787Z,83.21
2022-10-25T20:51:43.233Z,83.14
2022-10-25T20:54:10.056Z,82.97
2022-10-25T20:56:37.149Z,83.00
2022-10-25T20:59:04.086Z,83.40
2022-10-25T21:01:30.586Z,83.12
2022-10-25T21:03:57.063Z,83.14
2022-10-25T21:06:24.254Z,83.71
2022-10-25T21:08:50.683Z,83.47
2022-10-25T21:11:17.090Z,83.28
2022-10-25T21:13:43.451Z,83.81
2022-10-25T21:16:12.461Z,83.90
2022-10-25T21:18:39.155Z,83.39
2022-10-25T21:21:08.161Z,83.47
2022-10-25T21:23:35.085Z,84.00
2022-10-25T21:26:03.884Z,83.44
2022-10-25T21:28:36.467Z,83.65
2022-10-25T21:31:08.238Z,83.17
2022-10-25T21:33:34.738Z,83.62
2022-10-25T21:36:20.471Z,83.66
2022-10-25T21:38:47.095Z,83.38
2022-10-25T21:41:16.805Z,83.52
2022-10-25T21:43:45.170Z,83.46
2022-10-25T21:46:12.926Z,83.39
2022-10-25T21:48:39.310Z,82.73
2022-10-25T21:51:06.350Z,82.99
2022-10-25T21:53:32.829Z,83.01
2022-10-25T21:56:20.268Z,83.40
2022-10-25T21:58:48.894Z,83.49
2022-10-25T22:01:18.244Z,84.09
2022-10-25T22:03:44.778Z,83.63
2022-10-25T22:06:13.673Z,83.98
2022-10-25T22:08:40.641Z,84.27
2022-10-25T22:11:11.139Z,84.37
2022-10-25T22:13:38.477Z,84.00
2022-10-25T22:16:10.657Z,84.10
2022-10-25T22:18:37.375Z,84.50
2022-10-25T22:21:07.154Z,84.81
2022-10-25T22:23:34.434Z,85.10
2022-10-25T22:26:06.388Z,84.81
2022-10-25T22:28:36.717Z,84.54
2022-10-25T22:31:11.837Z,85.06
2022-10-25T22:33:38.645Z,84.56
2022-10-25T22:36:13.497Z,84.71
2022-10-25T22:38:40.202Z,85.30
2022-10-25T22:41:10.144Z,85.72
2022-10-25T22:43:38.317Z,85.86
2022-10-25T22:46:07.022Z,85.90
2022-10-25T22:48:35.364Z,86.63
2022-10-25T22:51:02.059Z,86.91
2022-10-25T22:53:29.256Z,86.77
2022-10-25T22:56:00.906Z,87.32
2022-10-25T22:58:28.703Z,87.82
2022-10-25T23:01:10.132Z,87.99
2022-10-25T23:03:37.805Z,88.44
2022-10-25T23:06:05.795Z,88.10
2022-10-25T23:08:32.700Z,88.54
2022-10-25T23:11:04.517Z,88.70
2022-10-25T23:13:32.259Z,88.84
2022-10-25T23:15:58.946Z,88.13
2022-10-25T23:18:25.904Z,88.68
2022-10-25T23:20:54.442Z,88.08
2022-10-25T23:23:21.634Z,87.88
2022-10-25T23:25:48.593Z,88.00
2022-10-25T23:28:14.970Z,87.65
2022-10-25T23:30:42.869Z,87.60
2022-10-25T23:33:11.638Z,88.09
2022-10-25T23:35:40.822Z,87.73
2022-10-25T23:38:10.879Z,87.38
2022-10-25T23:40:37.247Z,87.22
2022-10-25T23:43:03.630Z,87.11
2022-10-25T23:45:32.074Z,87.56
2022-10-25T23:47:58.742Z,87.04
2022-10-25T23:50:25.173Z,87.04
2022-10-25T23:52:51.809Z,87.17
2022-10-25T23:55:18.378Z,87.54
2022-10-25T23:57:44.733Z,87.50
